createdAt,value
2023-07-31T00:00:13.667Z,101222.09
2023-07-31T00:02:15.141Z,101216.75
2023-07-31T00:04:16.583Z,101215.28
2023-07-31T00:06:18.062Z,101213.34
2023-07-31T00:08:19.583Z,101204.56
2023-07-31T00:10:21.268Z,101205.34
2023-07-31T00:12:22.742Z,101208.22
2023-07-31T00:14:24.262Z,101208.22
2023-07-31T00:16:25.950Z,101209.91
2023-07-31T00:18:27.493Z,101208.09
2023-07-31T00:20:29.084Z,101206.50
2023-07-31T00:22:30.704Z,101201.16
2023-07-31T00:24:32.385Z,101194.09
2023-07-31T00:26:34.016Z,101184.25
2023-07-31T00:28:35.771Z,101173.69
2023-07-31T00:32:43.827Z,101181.72
2023-07-31T00:34:45.502Z,101180.84
2023-07-31T00:36:47.013Z,101186.94
2023-07-31T00:38:48.541Z,101179.88
2023-07-31T00:40:50.062Z,101180.00
2023-07-31T00:44:57.845Z,101181.72
2023-07-31T00:47:00.394Z,101180.84
2023-07-31T00:49:01.984Z,101180.84
2023-07-31T00:51:03.506Z,101180.09
2023-07-31T00:53:05.050Z,101179.13
2023-07-31T00:57:13.270Z,101172.06
2023-07-31T00:59:14.785Z,101175.59
2023-07-31T01:01:16.469Z,101176.56
2023-07-31T01:03:18.457Z,101178.50
2023-07-31T01:05:24.760Z,101174.97
2023-07-31T01:07:29.295Z,101169.63
2023-07-31T01:09:50.517Z,101151.31
2023-07-31T01:11:57.694Z,101158.19
2023-07-31T01:13:59.731Z,101154.56
2023-07-31T01:16:01.178Z,101145.56
2023-07-31T01:18:03.886Z,101135.84
2023-07-31T01:22:24.917Z,101135.00
2023-07-31T01:24:32.382Z,101122.59
2023-07-31T01:26:39.688Z,101122.47
2023-07-31T01:28:47.379Z,101120.75
2023-07-31T01:30:49.444Z,101130.72
2023-07-31T01:32:52.601Z,101127.06
2023-07-31T01:34:54.718Z,101133.28
2023-07-31T01:36:57.148Z,101131.69
2023-07-31T01:38:59.290Z,101137.88
2023-07-31T01:41:01.026Z,101136.06
2023-07-31T01:43:02.572Z,101140.56
2023-07-31T01:45:04.417Z,101134.38
2023-07-31T01:47:06.766Z,101129.94
2023-07-31T01:49:08.206Z,101125.44
2023-07-31T01:51:09.681Z,101123.72
2023-07-31T01:53:13.231Z,101118.50
2023-07-31T01:55:14.691Z,101137.22
2023-07-31T01:57:16.119Z,101137.22
2023-07-31T01:59:17.700Z,101125.56
2023-07-31T02:01:19.213Z,101120.34
2023-07-31T02:03:20.864Z,101135.50
2023-07-31T02:05:22.428Z,101133.69
2023-07-31T02:07:23.996Z,101136.47
2023-07-31T02:09:25.450Z,101128.44
2023-07-31T02:11:26.889Z,101138.28
2023-07-31T02:13:28.410Z,101129.31
2023-07-31T02:15:29.885Z,101127.72
2023-07-31T02:17:31.544Z,101121.50
2023-07-31T02:19:32.990Z,101115.19
2023-07-31T02:21:34.473Z,101113.41
2023-07-31T02:23:36.165Z,101106.34
2023-07-31T02:25:37.705Z,101094.78
2023-07-31T02:27:39.219Z,101101.09
2023-07-31T02:29:40.759Z,101106.44
2023-07-31T02:31:42.281Z,101110.94
2023-07-31T02:33:43.751Z,101103.75
2023-07-31T02:35:45.230Z,101095.00
2023-07-31T02:37:46.712Z,101094.13
2023-07-31T02:39:48.197Z,101090.63
2023-07-31T02:41:49.708Z,101087.00
2023-07-31T02:43:51.178Z,101080.78
2023-07-31T02:45:53.646Z,101079.94
2023-07-31T02:47:55.193Z,101075.44
2023-07-31T02:49:57.178Z,101063.59
2023-07-31T02:51:58.739Z,101068.50
2023-07-31T02:54:00.196Z,101067.53
2023-07-31T02:56:01.691Z,101065.63
2023-07-31T02:58:03.260Z,101054.19
2023-07-31T03:00:07.245Z,101058.78
2023-07-31T03:02:08.742Z,101060.47
2023-07-31T03:04:10.247Z,101070.41
2023-07-31T03:06:11.708Z,101067.66
2023-07-31T03:08:13.250Z,101068.63
2023-07-31T03:10:14.733Z,101060.72
2023-07-31T03:12:16.222Z,101062.53
2023-07-31T03:14:18.477Z,101072.38
2023-07-31T03:16:20.044Z,101075.75
2023-07-31T03:18:21.623Z,101080.16
2023-07-31T03:20:23.106Z,101081.09
2023-07-31T03:22:24.692Z,101075.03
2023-07-31T03:24:26.716Z,101064.34
2023-07-31T03:26:28.217Z,101055.47
2023-07-31T03:28:29.734Z,101056.34
2023-07-31T03:30:31.492Z,101055.47
2023-07-31T03:32:33.072Z,101051.13
2023-07-31T03:34:35.195Z,101055.47
2023-07-31T03:36:36.712Z,101047.69
2023-07-31T03:38:38.150Z,101047.69
2023-07-31T03:40:39.928Z,101053.16
2023-07-31T03:42:41.445Z,101049.50
2023-07-31T03:44:42.939Z,101051.19
2023-07-31T03:46:44.478Z,101052.06
2023-07-31T03:48:46.087Z,101052.16
2023-07-31T03:50:47.618Z,101048.66
2023-07-31T03:52:49.100Z,101045.03
2023-07-31T03:54:50.713Z,101046.94
2023-07-31T03:56:52.179Z,101043.44
2023-07-31T03:58:53.793Z,101045.22
2023-07-31T04:00:55.475Z,101040.00
2023-07-31T04:02:57.075Z,101044.50
2023-07-31T04:04:58.641Z,101039.25
2023-07-31T04:07:00.117Z,101042.78
2023-07-31T04:09:01.595Z,101035.63
2023-07-31T04:11:03.075Z,101042.88
2023-07-31T04:13:04.706Z,101042.03
2023-07-31T04:15:06.538Z,101038.53
2023-07-31T04:17:09.971Z,101043.00
2023-07-31T04:19:17.445Z,101037.66
2023-07-31T04:21:19.012Z,101037.66
2023-07-31T04:23:20.491Z,101030.59
2023-07-31T04:25:21.919Z,101041.28
2023-07-31T04:27:23.336Z,101034.22
2023-07-31T04:29:25.195Z,101042.25
2023-07-31T04:31:26.673Z,101035.94
2023-07-31T04:33:28.167Z,101043.00
2023-07-31T04:35:29.625Z,101043.13
2023-07-31T04:41:44.001Z,101050.38
2023-07-31T04:43:45.538Z,101053.06
2023-07-31T04:45:48.853Z,101044.31
2023-07-31T04:47:50.427Z,101049.66
2023-07-31T04:53:59.955Z,101051.69
2023-07-31T04:56:01.582Z,101054.38
2023-07-31T04:58:03.194Z,101054.38
2023-07-31T05:00:04.798Z,101054.25
2023-07-31T05:04:16.069Z,101057.88
2023-07-31T05:06:17.727Z,101050.81
2023-07-31T05:08:19.192Z,101049.88
2023-07-31T05:10:20.650Z,101049.03
2023-07-31T05:12:22.129Z,101055.22
2023-07-31T05:18:37.419Z,101033.22
2023-07-31T05:20:39.089Z,101048.47
2023-07-31T05:22:40.517Z,101049.34
2023-07-31T05:24:41.992Z,101047.63
2023-07-31T05:26:43.475Z,101052.84
2023-07-31T05:28:44.916Z,101041.22
2023-07-31T05:30:46.398Z,101043.13
2023-07-31T05:32:47.995Z,101043.06
2023-07-31T05:34:52.033Z,101033.22
2023-07-31T05:36:54.534Z,101036.00
2023-07-31T05:38:56.040Z,101026.16
2023-07-31T05:40:57.556Z,101036.84
2023-07-31T05:42:59.077Z,101026.28
2023-07-31T05:45:00.510Z,101014.84
2023-07-31T05:47:02.090Z,101013.03
2023-07-31T05:49:03.755Z,101010.44
2023-07-31T05:51:05.255Z,101012.03
2023-07-31T05:53:07.738Z,101019.22
2023-07-31T05:55:09.447Z,101011.09
2023-07-31T05:57:10.870Z,101007.56
2023-07-31T05:59:13.209Z,100998.69
2023-07-31T06:01:14.717Z,100994.44
2023-07-31T06:03:16.343Z,100994.34
2023-07-31T06:05:17.871Z,100998.69
2023-07-31T06:07:20.368Z,100997.09
2023-07-31T06:09:21.924Z,100995.19
2023-07-31T06:11:23.549Z,100995.19
2023-07-31T06:13:25.034Z,100995.19
2023-07-31T06:15:26.556Z,100992.50
2023-07-31T06:17:28.265Z,100980.13
2023-07-31T06:19:29.805Z,100981.81
2023-07-31T06:21:32.147Z,100980.88
2023-07-31T06:23:33.666Z,100978.19
2023-07-31T06:25:35.398Z,100983.53
2023-07-31T06:27:37.023Z,100981.72
2023-07-31T06:29:39.545Z,100988.88
2023-07-31T06:31:41.863Z,100999.56
2023-07-31T06:33:43.407Z,101003.06
2023-07-31T06:35:45.160Z,101004.03
2023-07-31T06:37:46.815Z,101001.47
2023-07-31T06:39:48.298Z,101005.09
2023-07-31T06:41:49.903Z,100989.09
2023-07-31T06:43:51.430Z,100989.09
2023-07-31T06:45:53.059Z,100998.94
2023-07-31T06:47:54.775Z,100997.97
2023-07-31T06:49:56.858Z,100998.81
2023-07-31T06:51:58.383Z,101007.69
2023-07-31T06:53:59.919Z,101013.88
2023-07-31T06:56:01.369Z,101007.69
2023-07-31T06:58:02.902Z,101014.00
2023-07-31T07:00:05.341Z,101014.72
2023-07-31T07:02:07.259Z,101010.38
2023-07-31T07:04:08.905Z,101011.22
2023-07-31T07:06:10.373Z,101011.31
2023-07-31T07:08:11.912Z,101008.53
2023-07-31T07:10:13.565Z,100997.72
2023-07-31T07:12:14.995Z,100990.59
2023-07-31T07:14:16.914Z,100982.66
2023-07-31T07:16:18.414Z,100988.75
2023-07-31T07:18:19.898Z,100984.38
2023-07-31T07:20:21.522Z,100980.88
2023-07-31T07:22:23.139Z,100976.28
2023-07-31T07:24:24.663Z,100974.31
2023-07-31T07:26:26.121Z,100982.25
2023-07-31T07:28:29.556Z,100983.09
2023-07-31T07:30:31.147Z,100979.56
2023-07-31T07:32:32.728Z,100973.38
2023-07-31T07:34:34.225Z,100973.38
2023-07-31T07:36:35.774Z,100977.88
2023-07-31T07:38:38.247Z,100970.47
2023-07-31T07:40:40.480Z,100980.28
2023-07-31T07:42:42.009Z,100982.13
2023-07-31T07:44:43.586Z,100968.66
2023-07-31T07:46:45.110Z,100969.41
2023-07-31T07:48:46.636Z,100960.50
2023-07-31T07:50:48.104Z,100947.91
2023-07-31T07:52:49.721Z,100962.97
2023-07-31T07:54:51.588Z,100976.09
2023-07-31T07:56:53.045Z,100967.25
2023-07-31T07:58:55.298Z,100966.28
2023-07-31T08:00:56.870Z,100965.41
2023-07-31T08:02:59.626Z,100972.47
2023-07-31T08:05:01.226Z,100964.56
2023-07-31T08:07:02.825Z,100961.91
2023-07-31T08:09:07.336Z,100970.88
2023-07-31T08:11:09.042Z,100964.69
2023-07-31T08:13:11.260Z,100956.69
2023-07-31T08:15:12.823Z,100949.50
2023-07-31T08:17:14.372Z,100956.69
2023-07-31T08:19:15.946Z,100952.16
2023-07-31T08:21:17.582Z,100949.50
2023-07-31T08:23:19.026Z,100959.09
2023-07-31T08:25:20.508Z,100958.78
2023-07-31T08:27:22.046Z,100960.47
2023-07-31T08:29:23.564Z,100961.94
2023-07-31T08:31:25.202Z,100955.53
2023-07-31T08:33:26.706Z,100954.69
2023-07-31T08:35:31.211Z,100966.56
2023-07-31T08:37:32.679Z,100953.09
2023-07-31T08:39:34.261Z,100951.50
2023-07-31T08:41:40.369Z,100940.81
2023-07-31T08:43:42.309Z,100942.53
2023-07-31T08:45:44.488Z,100940.69
2023-07-31T08:47:48.477Z,100936.22
2023-07-31T08:49:50.481Z,100948.50
2023-07-31T08:51:59.083Z,100937.81
2023-07-31T08:54:00.678Z,100941.31
2023-07-31T08:56:02.289Z,100927.13
2023-07-31T08:58:04.612Z,100937.81
2023-07-31T09:00:07.295Z,100928.91
2023-07-31T09:02:09.654Z,100921.78
2023-07-31T09:04:11.735Z,100936.94
2023-07-31T09:06:14.084Z,100925.41
2023-07-31T09:08:18.793Z,100926.25
2023-07-31T09:10:20.329Z,100936.94
2023-07-31T09:12:21.899Z,100938.66
2023-07-31T09:14:25.505Z,100940.56
2023-07-31T09:16:32.056Z,100940.56
2023-07-31T09:18:53.393Z,100950.31
2023-07-31T09:21:04.810Z,100944.84
2023-07-31T09:23:10.424Z,100942.16
2023-07-31T09:25:16.199Z,100946.66
2023-07-31T09:27:17.775Z,100956.41
2023-07-31T09:29:20.112Z,100949.34
2023-07-31T09:31:34.172Z,100950.19
2023-07-31T09:33:54.815Z,100949.34
2023-07-31T09:35:56.490Z,100946.53
2023-07-31T09:37:59.006Z,100934.28
2023-07-31T09:40:00.729Z,100937.91
2023-07-31T09:42:02.281Z,100949.59
2023-07-31T09:44:03.840Z,100950.31
2023-07-31T09:46:14.026Z,100936.09
2023-07-31T09:48:17.350Z,100934.50
2023-07-31T09:50:19.082Z,100937.06
2023-07-31T09:52:20.567Z,100932.69
2023-07-31T09:54:22.078Z,100933.66
2023-07-31T09:56:24.252Z,100931.84
2023-07-31T09:58:27.993Z,100923.69
2023-07-31T10:00:30.992Z,100929.16
2023-07-31T10:02:33.194Z,100922.00
2023-07-31T10:04:34.872Z,100920.19
2023-07-31T10:06:37.180Z,100908.00
2023-07-31T10:08:39.721Z,100908.75
2023-07-31T10:10:42.408Z,100901.50
2023-07-31T10:12:44.862Z,100896.03
2023-07-31T10:14:46.330Z,100904.88
2023-07-31T10:16:48.258Z,100907.66
2023-07-31T10:18:50.659Z,100906.84
2023-07-31T10:20:55.613Z,100920.28
2023-07-31T10:22:57.579Z,100908.75
2023-07-31T10:24:59.755Z,100892.72
2023-07-31T10:27:02.577Z,100898.91
2023-07-31T10:29:05.016Z,100888.22
2023-07-31T10:31:06.986Z,100881.91
2023-07-31T10:33:09.057Z,100890.81
2023-07-31T10:35:11.256Z,100891.75
2023-07-31T10:37:26.057Z,100896.16
2023-07-31T10:39:37.885Z,100896.16
2023-07-31T10:41:39.323Z,100879.38
2023-07-31T10:43:40.890Z,100883.84
2023-07-31T10:45:45.261Z,100898.91
2023-07-31T10:47:47.440Z,100890.91
2023-07-31T10:49:49.809Z,100881.06
2023-07-31T10:51:51.305Z,100884.72
2023-07-31T10:54:11.354Z,100869.47
2023-07-31T10:56:15.123Z,100877.44
2023-07-31T10:58:19.175Z,100880.84
2023-07-31T11:00:28.179Z,100869.94
2023-07-31T11:02:32.447Z,100879.53
2023-07-31T11:04:34.621Z,100889.25
2023-07-31T11:06:37.722Z,100871.38
2023-07-31T11:08:49.387Z,100877.69
2023-07-31T11:10:52.288Z,100876.09
2023-07-31T11:12:53.950Z,100874.41
2023-07-31T11:14:58.155Z,100871.72
2023-07-31T11:16:59.645Z,100879.03
2023-07-31T11:19:01.234Z,100871.84
2023-07-31T11:21:02.730Z,100858.50
2023-07-31T11:23:05.124Z,100841.72
2023-07-31T11:25:06.777Z,100860.41
2023-07-31T11:27:08.874Z,100869.19
2023-07-31T11:29:14.254Z,100867.34
2023-07-31T11:31:16.060Z,100871.72
2023-07-31T11:33:17.681Z,100862.88
2023-07-31T11:35:19.223Z,100866.50
2023-07-31T11:37:20.993Z,100864.66
2023-07-31T11:39:23.032Z,100870.03
2023-07-31T11:41:24.473Z,100876.22
2023-07-31T11:43:27.390Z,100870.16
2023-07-31T11:45:29.107Z,100872.81
2023-07-31T11:47:31.764Z,100875.34
2023-07-31T11:49:35.697Z,100871.00
2023-07-31T11:51:38.934Z,100879.81
2023-07-31T11:53:43.118Z,100869.38
2023-07-31T11:55:44.997Z,100863.59
2023-07-31T11:57:46.671Z,100863.00
2023-07-31T11:59:48.296Z,100854.97
2023-07-31T12:01:54.248Z,100855.06
2023-07-31T12:03:56.259Z,100843.66
2023-07-31T12:05:57.843Z,100838.53
2023-07-31T12:07:59.438Z,100842.06
2023-07-31T12:10:01.144Z,100839.28
2023-07-31T12:12:03.135Z,100838.41
2023-07-31T12:14:05.430Z,100838.41
2023-07-31T12:18:19.832Z,100840.38
2023-07-31T12:20:21.278Z,100844.81
2023-07-31T12:22:23.094Z,100843.97
2023-07-31T12:24:24.620Z,100839.19
2023-07-31T12:26:34.925Z,100831.31
2023-07-31T12:28:41.956Z,100828.63
2023-07-31T12:30:43.505Z,100823.28
2023-07-31T12:32:46.657Z,100818.69
2023-07-31T12:34:48.339Z,100799.97
2023-07-31T12:36:50.254Z,100815.03
2023-07-31T12:38:52.252Z,100799.09
2023-07-31T12:40:53.754Z,100799.97
2023-07-31T12:42:55.316Z,100795.59
2023-07-31T12:44:56.774Z,100794.75
2023-07-31T12:46:58.713Z,100789.41
2023-07-31T12:49:00.375Z,100789.41
2023-07-31T12:51:02.208Z,100771.66
2023-07-31T12:53:04.385Z,100766.19
2023-07-31T12:55:06.024Z,100762.56
2023-07-31T12:57:07.632Z,100759.03
2023-07-31T12:59:09.078Z,100770.72
2023-07-31T13:01:10.522Z,100747.50
2023-07-31T13:03:12.156Z,100753.69
2023-07-31T13:05:14.262Z,100766.06
2023-07-31T13:07:15.780Z,100755.66
2023-07-31T13:09:18.629Z,100745.91
2023-07-31T13:11:20.215Z,100752.97
2023-07-31T13:13:22.301Z,100749.34
2023-07-31T13:15:24.209Z,100735.09
2023-07-31T13:17:25.804Z,100728.91
2023-07-31T13:19:27.603Z,100722.59
2023-07-31T13:21:29.140Z,100717.13
2023-07-31T13:23:30.624Z,100724.19
2023-07-31T13:25:32.105Z,100724.19
2023-07-31T13:27:33.668Z,100708.16
2023-07-31T13:29:35.121Z,100712.63
2023-07-31T13:31:36.671Z,100715.22
2023-07-31T13:33:39.896Z,100716.03
2023-07-31T13:35:42.575Z,100709.13
2023-07-31T13:37:44.069Z,100718.94
2023-07-31T13:39:45.542Z,100709.25
2023-07-31T13:41:46.967Z,100721.88
2023-07-31T13:43:48.406Z,100716.41
2023-07-31T13:45:49.882Z,100726.13
2023-07-31T13:47:52.158Z,100729.53
2023-07-31T13:49:53.791Z,100725.16
2023-07-31T13:51:55.277Z,100719.06
2023-07-31T13:53:56.917Z,100716.41
2023-07-31T13:55:58.473Z,100713.59
2023-07-31T13:58:00.082Z,100716.41
2023-07-31T14:00:01.727Z,100710.09
2023-07-31T14:02:03.773Z,100706.44
2023-07-31T14:04:05.708Z,100700.97
2023-07-31T14:06:07.320Z,100697.22
2023-07-31T14:08:08.799Z,100688.22
2023-07-31T14:10:10.616Z,100682.75
2023-07-31T14:12:12.126Z,100686.28
2023-07-31T14:14:14.771Z,100691.53
2023-07-31T14:16:16.422Z,100695.06
2023-07-31T14:18:19.144Z,100685.22
2023-07-31T14:20:20.952Z,100688.72
2023-07-31T14:22:29.484Z,100691.41
2023-07-31T14:24:31.208Z,100682.41
2023-07-31T14:26:32.727Z,100686.06
2023-07-31T14:28:34.315Z,100678.16
2023-07-31T14:30:35.951Z,100662.88
2023-07-31T14:32:38.416Z,100672.69
2023-07-31T14:34:39.980Z,100664.81
2023-07-31T14:36:41.747Z,100653.28
2023-07-31T14:38:43.504Z,100648.00
2023-07-31T14:40:45.119Z,100640.84
2023-07-31T14:42:46.596Z,100636.34
2023-07-31T14:44:48.264Z,100631.00
2023-07-31T14:46:49.962Z,100622.97
2023-07-31T14:48:51.483Z,100623.88
2023-07-31T14:50:53.080Z,100629.22
2023-07-31T14:52:54.690Z,100615.88
2023-07-31T14:54:56.250Z,100622.06
2023-07-31T14:56:57.757Z,100609.63
2023-07-31T14:58:59.341Z,100605.25
2023-07-31T15:01:00.836Z,100603.56
2023-07-31T15:03:02.940Z,100603.56
2023-07-31T15:05:04.838Z,100595.44
2023-07-31T15:07:06.470Z,100599.91
2023-07-31T15:09:08.305Z,100596.25
2023-07-31T15:11:10.645Z,100593.72
2023-07-31T15:13:12.253Z,100593.72
2023-07-31T15:15:14.703Z,100594.56
2023-07-31T15:17:16.454Z,100609.63
2023-07-31T15:19:18.029Z,100612.28
2023-07-31T15:21:19.542Z,100609.63
2023-07-31T15:23:21.035Z,100615.94
2023-07-31T15:25:22.540Z,100605.25
2023-07-31T15:27:23.975Z,100618.75
2023-07-31T15:29:28.042Z,100608.06
2023-07-31T15:31:29.562Z,100610.00
2023-07-31T15:33:31.097Z,100594.94
2023-07-31T15:35:32.581Z,100593.34
2023-07-31T15:37:34.145Z,100598.59
2023-07-31T15:39:35.736Z,100589.84
2023-07-31T15:41:37.740Z,100585.34
2023-07-31T15:43:39.272Z,100589.72
2023-07-31T15:45:40.749Z,100589.72
2023-07-31T15:47:42.262Z,100597.13
2023-07-31T15:49:43.724Z,100598.81
2023-07-31T15:51:45.355Z,100595.31
2023-07-31T15:53:46.845Z,100595.19
2023-07-31T15:55:48.466Z,100596.03
2023-07-31T15:57:49.968Z,100584.50
2023-07-31T15:59:51.603Z,100597.84
2023-07-31T16:01:53.141Z,100587.41
2023-07-31T16:03:54.951Z,100590.56
2023-07-31T16:05:56.607Z,100591.16
2023-07-31T16:07:58.079Z,100592.03
2023-07-31T16:09:59.579Z,100589.25
2023-07-31T16:12:01.131Z,100587.41
2023-07-31T16:14:03.313Z,100585.47
2023-07-31T16:16:05.119Z,100583.53
2023-07-31T16:18:06.689Z,100563.84
2023-07-31T16:20:08.574Z,100567.50
2023-07-31T16:22:10.189Z,100557.66
2023-07-31T16:24:11.602Z,100554.00
2023-07-31T16:26:13.024Z,100553.16
2023-07-31T16:28:14.576Z,100539.69
2023-07-31T16:30:16.058Z,100529.81
2023-07-31T16:32:17.536Z,100528.84
2023-07-31T16:34:19.048Z,100532.50
2023-07-31T16:36:22.684Z,100529.81
2023-07-31T16:38:24.219Z,100531.41
2023-07-31T16:40:25.758Z,100520.00
2023-07-31T16:42:27.267Z,100522.66
2023-07-31T16:44:28.760Z,100522.66
2023-07-31T16:46:31.581Z,100529.81
2023-07-31T16:48:33.116Z,100510.41
2023-07-31T16:50:34.719Z,100515.63
2023-07-31T16:52:36.224Z,100513.91
2023-07-31T16:54:37.673Z,100509.44
2023-07-31T16:56:57.168Z,100503.22
2023-07-31T16:59:00.408Z,100498.75
2023-07-31T17:01:02.053Z,100502.25
2023-07-31T17:03:04.665Z,100509.44
2023-07-31T17:05:08.008Z,100506.88
2023-07-31T17:07:09.471Z,100518.44
2023-07-31T17:09:11.267Z,100509.69
2023-07-31T17:11:12.807Z,100495.34
2023-07-31T17:13:14.275Z,100494.47
2023-07-31T17:15:15.851Z,100490.13
2023-07-31T17:17:17.292Z,100461.72
2023-07-31T17:19:18.796Z,100456.25
2023-07-31T17:21:20.332Z,100450.31
2023-07-31T17:23:21.888Z,100450.31
2023-07-31T17:25:23.380Z,100460.16
2023-07-31T17:27:25.939Z,100447.63
2023-07-31T17:29:31.218Z,100458.44
2023-07-31T17:31:35.000Z,100444.13
2023-07-31T17:33:36.684Z,100427.09
2023-07-31T17:35:38.121Z,100415.81
2023-07-31T17:37:39.616Z,100404.16
2023-07-31T17:39:41.150Z,100416.66
2023-07-31T17:41:42.724Z,100396.13
2023-07-31T17:43:44.822Z,100388.25
2023-07-31T17:45:46.275Z,100391.66
2023-07-31T17:47:47.822Z,100392.75
2023-07-31T17:49:49.426Z,100397.09
2023-07-31T17:51:50.906Z,100379.41
2023-07-31T17:53:52.475Z,100393.13
2023-07-31T17:55:53.994Z,100385.97
2023-07-31T17:57:55.416Z,100383.28
2023-07-31T17:59:56.888Z,100374.44
2023-07-31T18:01:58.456Z,100353.06
2023-07-31T18:04:00.176Z,100353.91
2023-07-31T18:06:01.903Z,100360.22
2023-07-31T18:08:03.451Z,100350.53
2023-07-31T18:10:05.638Z,100347.97
2023-07-31T18:12:07.542Z,100352.47
2023-07-31T18:14:09.017Z,100351.38
2023-07-31T18:16:10.436Z,100351.22
2023-07-31T18:18:12.195Z,100351.50
2023-07-31T18:20:13.905Z,100349.66
2023-07-31T18:22:16.203Z,100341.78
2023-07-31T18:24:17.702Z,100343.88
2023-07-31T18:26:19.228Z,100339.94
2023-07-31T18:28:20.841Z,100330.25
2023-07-31T18:30:22.540Z,100322.22
2023-07-31T18:32:24.082Z,100323.47
2023-07-31T18:34:25.569Z,100328.69
2023-07-31T18:36:27.132Z,100338.25
2023-07-31T18:38:32.853Z,100329.41
2023-07-31T18:40:35.105Z,100327.09
2023-07-31T18:42:36.758Z,100317.28
2023-07-31T18:44:38.266Z,100332.44
2023-07-31T18:46:40.000Z,100331.63
2023-07-31T18:48:41.732Z,100320.66
2023-07-31T18:50:44.126Z,100316.78
2023-07-31T18:52:45.698Z,100310.84
2023-07-31T18:54:47.283Z,100305.75
2023-07-31T18:56:48.978Z,100305.50
2023-07-31T18:58:51.753Z,100305.59
2023-07-31T19:00:53.256Z,100299.56
2023-07-31T19:02:54.797Z,100303.06
2023-07-31T19:04:56.345Z,100300.25
2023-07-31T19:06:57.794Z,100283.53
2023-07-31T19:09:00.179Z,100280.97
2023-07-31T19:11:02.445Z,100265.59
2023-07-31T19:13:06.811Z,100277.84
2023-07-31T19:15:08.864Z,100268.63
2023-07-31T19:17:10.354Z,100262.28
2023-07-31T19:19:11.901Z,100257.81
2023-07-31T19:21:13.413Z,100259.38
2023-07-31T19:23:14.833Z,100267.25
2023-07-31T19:25:16.336Z,100262.88
2023-07-31T19:27:17.814Z,100259.75
2023-07-31T19:29:19.287Z,100258.78
2023-07-31T19:31:20.873Z,100251.59
2023-07-31T19:33:22.563Z,100253.28
2023-07-31T19:35:25.952Z,100245.19
2023-07-31T19:37:27.446Z,100251.34
2023-07-31T19:39:29.931Z,100254.03
2023-07-31T19:41:31.832Z,100239.69
2023-07-31T19:43:33.280Z,100259.50
2023-07-31T19:45:35.616Z,100239.84
2023-07-31T19:47:37.176Z,100246.97
2023-07-31T19:49:38.668Z,100248.38
2023-07-31T19:51:40.326Z,100243.88
2023-07-31T19:53:41.800Z,100244.59
2023-07-31T19:55:43.264Z,100243.59
2023-07-31T19:57:44.810Z,100239.25
2023-07-31T19:59:46.358Z,100234.00
2023-07-31T20:01:47.869Z,100235.72
2023-07-31T20:03:50.721Z,100230.38
2023-07-31T20:05:52.551Z,100241.91
2023-07-31T20:07:53.988Z,100231.34
2023-07-31T20:09:59.173Z,100237.56
2023-07-31T20:12:00.802Z,100211.53
2023-07-31T20:14:05.770Z,100238.06
2023-07-31T20:16:07.625Z,100230.91
2023-07-31T20:18:09.206Z,100242.31
2023-07-31T20:20:11.010Z,100236.00
2023-07-31T20:22:12.585Z,100217.28
2023-07-31T20:24:14.436Z,100211.09
2023-07-31T20:26:16.074Z,100213.75
2023-07-31T20:28:17.669Z,100226.13
2023-07-31T20:30:19.177Z,100203.22
2023-07-31T20:32:20.690Z,100200.09
2023-07-31T20:34:22.390Z,100197.16
2023-07-31T20:36:23.917Z,100209.53
2023-07-31T20:38:25.366Z,100195.19
2023-07-31T20:40:26.808Z,100194.38
2023-07-31T20:42:28.308Z,100199.38
2023-07-31T20:44:29.856Z,100201.91
2023-07-31T20:46:31.384Z,100199.13
2023-07-31T20:48:32.874Z,100191.81
2023-07-31T20:50:36.445Z,100194.63
2023-07-31T20:52:38.015Z,100185.69
2023-07-31T20:54:41.371Z,100191.75
2023-07-31T20:56:42.930Z,100198.91
2023-07-31T20:58:44.486Z,100185.19
2023-07-31T21:00:46.544Z,100186.84
2023-07-31T21:02:48.261Z,100162.81
2023-07-31T21:04:49.790Z,100166.22
2023-07-31T21:06:51.213Z,100161.75
2023-07-31T21:08:53.221Z,100160.88
2023-07-31T21:10:54.956Z,100181.25
2023-07-31T21:12:57.259Z,100153.00
2023-07-31T21:14:58.671Z,100154.22
2023-07-31T21:17:00.368Z,100140.44
2023-07-31T21:19:02.042Z,100155.47
2023-07-31T21:21:03.528Z,100158.28
2023-07-31T21:23:07.771Z,100157.03
2023-07-31T21:25:09.363Z,100146.22
2023-07-31T21:27:11.685Z,100134.56
2023-07-31T21:29:13.145Z,100108.72
2023-07-31T21:31:15.660Z,100128.63
2023-07-31T21:33:17.145Z,100133.88
2023-07-31T21:35:19.453Z,100126.56
2023-07-31T21:37:21.125Z,100112.03
2023-07-31T21:39:22.752Z,100138.47
2023-07-31T21:41:24.468Z,100143.69
2023-07-31T21:43:25.926Z,100148.88
2023-07-31T21:45:28.681Z,100114.91
2023-07-31T21:47:30.214Z,100127.53
2023-07-31T21:49:31.878Z,100129.38
2023-07-31T21:51:33.324Z,100128.78
2023-07-31T21:53:34.915Z,100112.50
2023-07-31T21:55:36.580Z,100124.84
2023-07-31T21:57:38.062Z,100106.06
2023-07-31T21:59:40.921Z,100109.69
2023-07-31T22:01:42.361Z,100118.53
2023-07-31T22:03:43.930Z,100120.63
2023-07-31T22:05:45.410Z,100124.84
2023-07-31T22:07:46.918Z,100123.06
2023-07-31T22:09:48.414Z,100112.50
2023-07-31T22:11:49.953Z,100094.78
2023-07-31T22:13:51.523Z,100106.31
2023-07-31T22:15:53.191Z,100100.13
2023-07-31T22:17:54.708Z,100098.16
2023-07-31T22:19:56.150Z,100090.97
2023-07-31T22:21:58.057Z,100090.69
2023-07-31T22:23:59.628Z,100080.56
2023-07-31T22:26:01.267Z,100074.13
2023-07-31T22:28:14.891Z,100070.63
2023-07-31T22:30:21.939Z,100072.72
2023-07-31T22:32:23.511Z,100095.75
2023-07-31T22:34:24.986Z,100082.41
2023-07-31T22:36:26.561Z,100069.78
2023-07-31T22:38:28.048Z,100066.13
2023-07-31T22:40:29.729Z,100074.25
2023-07-31T22:42:31.211Z,100077.81
2023-07-31T22:44:32.712Z,100080.31
2023-07-31T22:46:34.362Z,100086.63
2023-07-31T22:48:35.971Z,100083.97
2023-07-31T22:50:37.524Z,100075.00
2023-07-31T22:52:39.939Z,100063.72
2023-07-31T22:54:41.510Z,100063.28
2023-07-31T22:56:43.178Z,100057.53
2023-07-31T22:58:44.906Z,100036.25
2023-07-31T23:00:46.421Z,100059.94
2023-07-31T23:02:47.983Z,100060.91
2023-07-31T23:04:53.501Z,100061.63
2023-07-31T23:06:56.286Z,100052.91
2023-07-31T23:08:57.876Z,100039.56
2023-07-31T23:10:59.488Z,100052.91
2023-07-31T23:13:00.926Z,100039.56
2023-07-31T23:15:02.471Z,100031.41
2023-07-31T23:17:04.165Z,100025.50
2023-07-31T23:19:05.907Z,100028.03
2023-07-31T23:21:07.477Z,100032.41
2023-07-31T23:23:09.843Z,100030.38
2023-07-31T23:25:11.413Z,100035.47
2023-07-31T23:27:13.005Z,100029.16
2023-07-31T23:29:14.609Z,100028.03
2023-07-31T23:31:16.315Z,100028.88
2023-07-31T23:33:17.972Z,100015.28
2023-07-31T23:35:19.536Z,99995.28
2023-07-31T23:37:20.965Z,100000.63
2023-07-31T23:39:22.458Z,100003.88